Time;durP1;ratioP1;P1;durP2;ratioP2;P2;SDS_P1;SDS_P2;PMS_P1;PMS_P2;Temp;Humidity;BMP_temperature;BMP_pressure;BME280_temperature;BME280_humidity;BME280_pressure;Samples;Min_cycle;Max_cycle;Signal;HPM_P1;HPM_P2
2023/04/13 00:08:10;;;;;;;1.00;0.87;;;9.90;98.00;;;;;;20912515;28;20667;-66
2023/04/13 00:18:12;;;;;;;2.10;1.00;;;9.90;98.30;;;;;;20912300;28;20232;-69
2023/04/13 00:28:15;;;;;;;3.17;1.00;;;9.80;97.70;;;;;;20911945;28;20204;-70
2023/04/13 00:38:17;;;;;;;1.93;1.20;;;9.80;97.70;;;;;;20911120;28;20278;-69
2023/04/13 00:48:19;;;;;;;3.20;1.37;;;9.70;97.70;;;;;;20912779;28;20236;-65
2023/04/13 00:58:21;;;;;;;1.33;1.03;;;9.40;97.80;;;;;;20926684;28;20323;-65
2023/04/13 01:08:38;;;;;;;1.87;1.30;;;9.40;98.10;;;;;;20925381;28;20212;-66
2023/04/13 01:18:44;;;;;;;1.83;1.20;;;9.20;98.10;;;;;;20924706;28;20236;-64
2023/04/13 01:28:46;;;;;;;2.87;1.30;;;9.20;98.20;;;;;;20924242;28;20208;-66
2023/04/13 01:38:49;;;;;;;1.10;1.00;;;9.30;98.30;;;;;;20923042;28;20228;-65
2023/04/13 01:48:54;;;;;;;2.07;1.20;;;9.40;98.10;;;;;;20921959;28;20577;-65
2023/04/13 01:58:57;;;;;;;2.57;1.30;;;9.30;97.90;;;;;;20921283;28;20238;-65
2023/04/13 02:08:59;;;;;;;1.30;1.00;;;9.30;97.70;;;;;;20920739;28;20215;-64
2023/04/13 02:19:01;;;;;;;1.63;1.03;;;9.20;97.30;;;;;;20919616;28;20239;-64
2023/04/13 02:29:02;;;;;;;4.90;2.50;;;9.10;97.20;;;;;;20919570;28;20211;-65
2023/04/13 02:39:04;;;;;;;1.83;1.10;;;9.10;97.00;;;;;;20918194;28;20658;-68
2023/04/13 02:49:07;;;;;;;2.67;1.40;;;9.10;96.80;;;;;;20917426;28;20232;-69
2023/04/13 02:59:09;;;;;;;2.90;2.00;;;9.00;96.70;;;;;;20917005;28;20238;-68
2023/04/13 03:09:11;;;;;;;4.33;1.40;;;8.90;96.50;;;;;;20915837;28;20207;-68
2023/04/13 03:19:13;;;;;;;1.67;1.13;;;8.80;96.10;;;;;;20914336;28;20262;-67
2023/04/13 03:29:15;;;;;;;3.97;1.03;;;9.00;95.80;;;;;;20914681;28;20723;-69
2023/04/13 03:39:16;;;;;;;4.47;1.30;;;8.90;95.40;;;;;;20913718;28;20244;-66
2023/04/13 03:49:18;;;;;;;2.70;2.00;;;8.80;95.10;;;;;;20913159;28;20265;-69
2023/04/13 03:59:20;;;;;;;2.70;1.20;;;8.70;95.00;;;;;;20913278;28;20720;-69
2023/04/13 04:09:21;;;;;;;2.10;1.10;;;8.80;94.80;;;;;;20912628;28;20217;-69
2023/04/13 04:19:23;;;;;;;2.90;1.10;;;8.90;94.50;;;;;;20911883;28;20235;-70
2023/04/13 04:29:33;;;;;;;2.93;1.20;;;9.00;94.00;;;;;;20924938;28;20211;-69
2023/04/13 04:39:43;;;;;;;4.70;1.20;;;9.10;93.20;;;;;;20927298;28;20238;-71
2023/04/13 04:49:45;;;;;;;5.63;1.30;;;9.10;92.40;;;;;;20925000;28;20239;-68
2023/04/13 04:59:48;;;;;;;5.07;1.10;;;9.20;92.10;;;;;;20926250;28;20231;-68
2023/04/13 05:09:49;;;;;;;3.87;1.10;;;9.10;91.80;;;;;;20924998;28;20266;-67
2023/04/13 05:19:51;;;;;;;4.63;1.20;;;9.10;91.50;;;;;;20889803;28;20236;-67
2023/04/13 05:33:48;;;;;;;5.50;1.07;;;9.60;91.20;;;;;;21010579;28;20580;-65
2023/04/13 05:43:50;;;;;;;2.80;1.33;;;9.80;90.60;;;;;;20939654;28;20201;-66
2023/04/13 05:53:52;;;;;;;5.00;1.20;;;9.80;90.20;;;;;;20950382;28;20269;-65
2023/04/13 06:03:54;;;;;;;3.13;1.20;;;9.80;89.40;;;;;;20941412;28;20215;-66
2023/04/13 06:13:57;;;;;;;3.83;1.30;;;9.80;89.50;;;;;;20980745;28;20304;-65
2023/04/13 06:24:00;;;;;;;3.63;1.50;;;9.80;89.10;;;;;;20978409;28;20308;-68
2023/04/13 06:34:02;;;;;;;1.90;1.00;;;10.00;87.40;;;;;;20962381;28;20694;-70
2023/04/13 06:44:04;;;;;;;5.73;1.40;;;10.00;86.70;;;;;;20894402;28;20232;-69
2023/04/13 06:54:06;;;;;;;4.40;1.77;;;;;;;;;;20874837;28;20657;-66
2023/04/13 07:04:08;;;;;;;7.43;1.60;;;9.90;86.80;;;;;;20887118;28;20263;-65
2023/04/13 07:14:10;;;;;;;6.10;1.50;;;10.00;85.50;;;;;;20877625;28;20212;-63
2023/04/13 07:24:11;;;;;;;8.30;1.80;;;10.10;85.50;;;;;;20857483;28;20234;-64
2023/04/13 07:34:13;;;;;;;7.30;1.60;;;10.30;84.40;;;;;;20836735;28;20216;-65
2023/04/13 07:44:15;;;;;;;5.47;1.93;;;10.60;83.80;;;;;;20836700;28;20690;-64
2023/04/13 07:54:17;;;;;;;4.80;1.80;;;10.90;81.80;;;;;;20828422;28;20213;-65
2023/04/13 08:04:20;;;;;;;5.73;1.90;;;11.00;80.70;;;;;;20829252;28;20238;-65
2023/04/13 08:14:22;;;;;;;9.73;1.80;;;11.00;79.20;;;;;;20834011;28;20211;-66
2023/04/13 08:24:25;;;;;;;5.57;1.70;;;;;;;;;;20833942;28;20715;-65
2023/04/13 08:34:26;;;;;;;5.93;1.70;;;10.90;78.00;;;;;;20832412;28;20720;-65
2023/04/13 08:44:29;;;;;;;6.43;1.83;;;10.90;77.80;;;;;;20831833;28;20239;-65
2023/04/13 08:54:31;;;;;;;6.90;1.80;;;10.90;77.60;;;;;;20860443;28;20257;-67
2023/04/13 09:04:35;;;;;;;7.10;2.10;;;11.10;77.60;;;;;;20829389;28;20238;-65
2023/04/13 09:14:37;;;;;;;6.70;2.03;;;11.30;77.80;;;;;;20829377;28;20216;-64
2023/04/13 09:24:40;;;;;;;5.37;1.50;;;11.30;77.20;;;;;;20827179;28;20236;-66
2023/04/13 09:34:42;;;;;;;3.00;1.30;;;11.30;77.30;;;;;;20828451;28;20219;-68
2023/04/13 09:44:53;;;;;;;3.33;1.17;;;11.40;77.30;;;;;;20827396;28;20288;-69
2023/04/13 09:54:57;;;;;;;2.70;1.20;;;11.70;77.10;;;;;;20828097;28;20239;-67
2023/04/13 10:04:59;;;;;;;2.30;1.40;;;12.20;77.20;;;;;;20818461;28;20298;-66
2023/04/13 10:15:30;;;;;;;20.50;12.73;;;12.50;76.70;;;;;;20796986;28;20204;-70
2023/04/13 10:25:32;;;;;;;4.03;1.60;;;12.20;77.90;;;;;;20798905;28;20236;-70
2023/04/13 10:35:37;;;;;;;2.63;1.50;;;12.40;78.40;;;;;;20764051;28;20290;-68
2023/04/13 10:45:42;;;;;;;3.47;1.40;;;12.50;79.00;;;;;;20830112;28;20300;-68
2023/04/13 10:55:44;;;;;;;3.20;1.47;;;12.60;78.90;;;;;;20836989;28;20262;-67
2023/04/13 11:05:55;;;;;;;4.27;1.30;;;12.90;76.80;;;;;;20824173;28;20694;-68
2023/04/13 11:16:02;;;;;;;4.83;1.20;;;13.00;75.60;;;;;;20838185;28;20215;-68
2023/04/13 11:26:04;;;;;;;3.33;1.40;;;13.10;74.50;;;;;;20796201;28;20247;-67
2023/04/13 11:36:06;;;;;;;2.97;1.40;;;13.50;73.70;;;;;;20850552;28;20207;-67
2023/04/13 11:46:11;;;;;;;2.70;1.10;;;13.20;73.30;;;;;;20842358;28;20240;-67
2023/04/13 11:56:13;;;;;;;2.70;1.20;;;13.20;73.90;;;;;;20869695;28;20201;-70
2023/04/13 12:06:15;;;;;;;3.23;1.30;;;13.20;73.40;;;;;;20878997;28;20231;-68
2023/04/13 12:16:26;;;;;;;4.77;1.33;;;13.20;71.90;;;;;;20868605;28;20247;-69
2023/04/13 12:26:32;;;;;;;4.27;1.40;;;13.20;72.40;;;;;;20838295;28;20579;-71
2023/04/13 12:36:56;;;;;;;2.97;1.40;;;13.40;70.30;;;;;;20772286;28;20259;-70
2023/04/13 12:46:58;;;;;;;3.70;1.27;;;13.50;69.00;;;;;;20748595;28;20316;-70
2023/04/13 12:57:00;;;;;;;3.80;1.30;;;13.30;69.20;;;;;;20749795;28;20287;-70
2023/04/13 13:07:02;;;;;;;6.03;3.00;;;13.80;68.90;;;;;;20749050;28;20236;-69
2023/04/13 13:17:03;;;;;;;3.03;1.10;;;13.80;69.40;;;;;;20794179;28;20251;-69
2023/04/13 13:27:05;;;;;;;1.43;1.00;;;12.60;71.80;;;;;;20829551;28;20244;-70
2023/04/13 13:37:10;;;;;;;1.13;0.80;;;12.30;75.40;;;;;;20828743;28;20607;-71
2023/04/13 13:47:12;;;;;;;2.53;1.00;;;12.30;76.10;;;;;;20831351;28;20651;-69
2023/04/13 13:57:13;;;;;;;3.73;1.23;;;12.70;77.70;;;;;;20844722;28;20201;-69
2023/04/13 14:07:15;;;;;;;2.37;1.20;;;13.20;78.30;;;;;;20843602;28;20268;-71
2023/04/13 14:17:17;;;;;;;5.77;2.03;;;14.60;76.40;;;;;;20843413;28;20201;-69
2023/04/13 14:27:19;;;;;;;5.90;2.63;;;15.10;76.60;;;;;;20842558;28;20272;-72
2023/04/13 14:37:22;;;;;;;2.70;1.20;;;17.50;71.60;;;;;;20839779;28;20259;-75
2023/04/13 14:47:24;;;;;;;2.50;1.10;;;16.00;68.60;;;;;;20838713;28;20711;-69
2023/04/13 14:57:27;;;;;;;3.37;1.20;;;15.80;68.40;;;;;;20841909;28;20208;-68
2023/04/13 15:07:28;;;;;;;2.63;1.50;;;15.90;69.60;;;;;;20829055;28;20239;-66
2023/04/13 15:17:30;;;;;;;2.57;1.07;;;16.30;67.60;;;;;;20854599;28;20287;-71
2023/04/13 15:27:33;;;;;;;2.37;1.30;;;15.70;66.70;;;;;;20886566;28;20242;-72
2023/04/13 15:37:35;;;;;;;6.27;1.30;;;15.60;66.20;;;;;;20872092;28;20670;-72
2023/04/13 15:47:37;;;;;;;2.87;1.00;;;14.80;65.80;;;;;;20879664;28;20246;-72
2023/04/13 15:57:39;;;;;;;2.93;1.20;;;14.20;65.70;;;;;;20809956;28;20208;-71
2023/04/13 16:07:41;;;;;;;3.00;1.17;;;13.90;66.40;;;;;;20903056;28;20257;-72
2023/04/13 16:17:43;;;;;;;4.00;0.77;;;12.90;67.90;;;;;;20915842;28;20632;-71
2023/04/13 16:27:47;;;;;;;0.67;0.67;;;11.40;73.10;;;;;;20916173;28;20713;-71
2023/04/13 16:37:49;;;;;;;0.93;0.70;;;11.40;73.90;;;;;;20915365;28;20219;-70
2023/04/13 16:47:54;;;;;;;1.27;0.93;;;10.70;79.00;;;;;;20914372;28;20327;-73
2023/04/13 16:57:56;;;;;;;2.07;0.80;;;9.90;88.60;;;;;;20914069;28;20204;-71
2023/04/13 17:07:57;;;;;;;1.13;0.60;;;9.90;89.20;;;;;;20911930;28;20235;-75
2023/04/13 17:17:59;;;;;;;1.13;0.80;;;10.00;87.30;;;;;;20871851;28;20296;-69
2023/04/13 17:28:01;;;;;;;0.93;0.60;;;10.10;86.80;;;;;;20839261;28;20279;-74
2023/04/13 17:38:03;;;;;;;3.70;0.80;;;10.20;86.40;;;;;;20839411;28;20212;-70
2023/04/13 17:48:05;;;;;;;0.60;0.60;;;10.40;86.00;;;;;;20856031;28;20242;-72
2023/04/13 17:58:07;;;;;;;1.03;0.70;;;10.40;85.50;;;;;;20819520;28;20211;-70
2023/04/13 18:08:08;;;;;;;0.80;0.80;;;10.30;85.00;;;;;;20833226;28;20295;-71
2023/04/13 18:18:10;;;;;;;1.80;1.40;;;10.40;85.70;;;;;;20801736;28;20232;-70
2023/04/13 18:28:11;;;;;;;1.50;1.07;;;10.20;85.10;;;;;;20745807;28;20710;-71
2023/04/13 18:38:13;;;;;;;2.50;2.00;;;10.20;85.80;;;;;;20771660;28;20212;-71
2023/04/13 18:48:15;;;;;;;4.97;3.63;;;10.00;85.60;;;;;;20777604;28;20237;-70
2023/04/13 18:58:19;;;;;;;3.00;2.20;;;9.90;87.30;;;;;;20760733;28;20665;-70
2023/04/13 19:08:21;;;;;;;3.53;2.53;;;9.90;88.00;;;;;;20759197;28;20316;-69
2023/04/13 19:18:23;;;;;;;7.33;2.40;;;9.80;88.50;;;;;;20803313;28;20205;-70
2023/04/13 19:28:26;;;;;;;2.97;2.23;;;9.40;90.10;;;;;;20758186;28;20250;-70
2023/04/13 19:38:27;;;;;;;7.83;3.97;;;9.20;90.70;;;;;;20756547;28;20582;-71
2023/04/13 19:48:29;;;;;;;4.47;3.30;;;9.20;91.00;;;;;;20754592;28;20243;-71
2023/04/13 19:58:31;;;;;;;9.50;4.07;;;8.90;91.80;;;;;;20753702;28;20534;-72
2023/04/13 20:08:33;;;;;;;6.43;3.90;;;8.80;92.30;;;;;;20753642;28;20700;-71
2023/04/13 20:18:35;;;;;;;5.57;3.67;;;8.80;92.70;;;;;;20752083;28;20217;-72
2023/04/13 20:28:37;;;;;;;6.63;4.17;;;8.70;93.00;;;;;;20751648;28;20248;-73
2023/04/13 20:38:41;;;;;;;7.23;4.30;;;8.70;93.20;;;;;;20751431;28;20629;-72
2023/04/13 20:48:44;;;;;;;6.27;3.67;;;8.40;93.60;;;;;;20750886;28;20238;-73
2023/04/13 20:58:48;;;;;;;5.63;3.77;;;8.40;94.00;;;;;;20749393;28;20212;-72
2023/04/13 21:08:51;;;;;;;6.53;4.23;;;8.30;94.10;;;;;;20749543;28;20296;-71
2023/04/13 21:18:53;;;;;;;9.63;5.37;;;8.30;94.40;;;;;;20748833;28;20679;-71
2023/04/13 21:28:55;;;;;;;6.67;3.13;;;8.00;94.90;;;;;;20748326;28;20604;-70
2023/04/13 21:38:57;;;;;;;5.80;3.60;;;7.90;95.20;;;;;;20746105;28;20208;-70
2023/04/13 21:48:59;;;;;;;6.37;3.30;;;7.80;95.60;;;;;;20747744;28;20335;-69
2023/04/13 21:59:01;;;;;;;8.30;3.67;;;7.80;95.60;;;;;;20747463;28;20212;-69
2023/04/13 22:09:03;;;;;;;7.13;3.37;;;7.70;95.80;;;;;;20751064;28;20242;-70
2023/04/13 22:19:05;;;;;;;7.73;4.40;;;7.60;96.00;;;;;;20762283;28;20570;-71
2023/04/13 22:29:07;;;;;;;5.03;3.70;;;7.50;96.30;;;;;;20761128;28;20255;-71
2023/04/13 22:39:09;;;;;;;6.60;4.63;;;7.40;96.50;;;;;;20761007;28;20214;-69
2023/04/13 22:49:11;;;;;;;8.20;4.20;;;7.30;96.90;;;;;;20759968;28;20644;-69
2023/04/13 22:59:13;;;;;;;6.50;4.40;;;;;;;;;;20759361;28;20207;-69
2023/04/13 23:09:15;;;;;;;6.83;4.53;;;7.40;97.40;;;;;;20759005;28;20237;-71
2023/04/13 23:19:19;;;;;;;6.93;4.13;;;7.30;97.50;;;;;;20758157;28;20216;-72
2023/04/13 23:29:21;;;;;;;8.43;4.53;;;7.10;97.70;;;;;;20757674;28;20243;-70
2023/04/13 23:39:23;;;;;;;6.50;4.83;;;7.10;98.00;;;;;;20755181;28;20689;-70
2023/04/13 23:49:25;;;;;;;8.23;4.97;;;7.00;98.10;;;;;;20755062;28;20231;-70
2023/04/13 23:59:27;;;;;;;9.20;5.27;;;6.90;98.30;;;;;;20754439;28;20215;-71
